Time;durP1;ratioP1;P1;durP2;ratioP2;P2;SDS_P1;SDS_P2;PMS_P1;PMS_P2;Temp;Humidity;BMP_temperature;BMP_pressure;BME280_temperature;BME280_humidity;BME280_pressure;Samples;Min_cycle;Max_cycle;Signal;HPM_P1;HPM_P2
2024/01/25 00:02:10;;;;;;;19.70;6.05;;;7.50;99.90;;;;;;4860576;29;20100;-77
2024/01/25 00:04:36;;;;;;;12.25;5.68;;;7.50;99.90;;;;;;4846772;29;20042;-78
2024/01/25 00:07:01;;;;;;;13.52;5.72;;;7.50;99.90;;;;;;4820704;29;20078;-78
2024/01/25 00:09:27;;;;;;;15.15;6.10;;;7.50;99.90;;;;;;4819827;29;20053;-78
2024/01/25 00:11:53;;;;;;;6.72;4.65;;;7.40;99.90;;;;;;4828289;29;20098;-78
2024/01/25 00:14:19;;;;;;;15.80;6.28;;;7.40;99.90;;;;;;4848089;29;20101;-77
2024/01/25 00:16:44;;;;;;;13.95;5.85;;;7.40;99.90;;;;;;4827484;29;20046;-78
2024/01/25 00:19:10;;;;;;;9.75;5.90;;;7.40;99.90;;;;;;4846639;29;20053;-77
2024/01/25 00:21:42;;;;;;;13.95;6.07;;;7.50;99.90;;;;;;4834817;29;20050;-79
2024/01/25 00:24:08;;;;;;;17.67;6.15;;;7.40;99.90;;;;;;4845631;29;20050;-77
2024/01/25 00:26:33;;;;;;;8.18;5.00;;;7.50;99.90;;;;;;4846447;29;20054;-79
2024/01/25 00:28:59;;;;;;;12.75;6.43;;;7.40;99.90;;;;;;4831244;29;20183;-78
2024/01/25 00:31:25;;;;;;;8.93;5.20;;;7.40;99.90;;;;;;4818866;29;20053;-78
2024/01/25 00:33:50;;;;;;;21.33;5.40;;;7.40;99.90;;;;;;4829274;29;20092;-78
2024/01/25 00:36:16;;;;;;;9.65;5.43;;;7.40;99.90;;;;;;4861484;29;20050;-77
2024/01/25 00:38:42;;;;;;;14.45;5.82;;;7.50;99.90;;;;;;4823807;29;20050;-78
2024/01/25 00:41:10;;;;;;;12.90;5.03;;;7.40;99.90;;;;;;4824892;29;20091;-78
2024/01/25 00:43:36;;;;;;;17.02;5.60;;;7.40;99.90;;;;;;4828276;29;20046;-78
2024/01/25 00:46:02;;;;;;;15.10;5.25;;;7.30;99.90;;;;;;4832777;29;20089;-78
2024/01/25 00:48:28;;;;;;;10.77;5.25;;;7.30;99.90;;;;;;4844092;29;20410;-79
2024/01/25 00:50:54;;;;;;;11.90;5.85;;;7.30;99.90;;;;;;4847959;29;20080;-78
2024/01/25 00:53:20;;;;;;;18.63;5.70;;;7.30;99.90;;;;;;4827497;29;20113;-78
2024/01/25 00:55:46;;;;;;;9.57;5.53;;;7.30;99.90;;;;;;4821037;29;20074;-77
2024/01/25 00:58:12;;;;;;;10.57;5.68;;;7.20;99.90;;;;;;4866218;29;20069;-78
2024/01/25 01:00:38;;;;;;;12.68;5.35;;;7.20;99.90;;;;;;4822645;29;20046;-78
2024/01/25 01:03:05;;;;;;;14.35;6.55;;;7.20;99.90;;;;;;4847555;29;20399;-79
2024/01/25 01:05:31;;;;;;;14.07;5.82;;;7.20;99.90;;;;;;4864181;29;20042;-85
2024/01/25 01:07:57;;;;;;;14.98;7.07;;;7.10;99.90;;;;;;4849267;29;20065;-79
2024/01/25 01:10:22;;;;;;;13.10;6.28;;;7.10;99.90;;;;;;4837847;29;20054;-78
2024/01/25 01:12:48;;;;;;;13.90;6.72;;;7.10;99.90;;;;;;4832698;29;20045;-78
2024/01/25 01:15:14;;;;;;;12.77;6.55;;;7.00;99.90;;;;;;4833063;29;20061;-79
2024/01/25 01:17:39;;;;;;;13.40;6.25;;;7.00;99.90;;;;;;4842543;29;20054;-78
2024/01/25 01:20:06;;;;;;;9.38;7.10;;;6.90;99.90;;;;;;4832081;29;20046;-78
2024/01/25 01:22:31;;;;;;;10.93;6.25;;;6.80;99.90;;;;;;4833436;29;20062;-79
2024/01/25 01:24:57;;;;;;;17.70;7.20;;;6.80;99.90;;;;;;4865460;29;20042;-78
2024/01/25 01:27:23;;;;;;;9.18;5.82;;;6.80;99.90;;;;;;4832576;29;20046;-77
2024/01/25 01:29:48;;;;;;;17.33;5.88;;;6.80;99.90;;;;;;4848152;29;20106;-78
2024/01/25 01:32:14;;;;;;;14.45;6.30;;;6.80;99.90;;;;;;4865103;29;20072;-77
2024/01/25 01:34:40;;;;;;;13.77;5.60;;;6.80;99.90;;;;;;4840984;29;20452;-77
2024/01/25 01:37:05;;;;;;;11.77;5.97;;;6.80;99.90;;;;;;4834228;29;20128;-77
2024/01/25 01:39:31;;;;;;;20.77;6.03;;;6.80;99.90;;;;;;4824065;29;20102;-81
2024/01/25 01:41:57;;;;;;;10.52;6.05;;;6.70;99.90;;;;;;4851009;29;20049;-77
2024/01/25 01:44:22;;;;;;;15.15;6.10;;;6.80;99.90;;;;;;4844459;29;20042;-79
2024/01/25 01:46:48;;;;;;;15.38;6.03;;;6.70;99.90;;;;;;4831262;29;20053;-79
2024/01/25 01:49:15;;;;;;;11.07;6.32;;;6.80;99.90;;;;;;4828353;29;20054;-77
2024/01/25 01:51:42;;;;;;;14.90;6.15;;;6.70;99.90;;;;;;4862271;29;20046;-76
2024/01/25 01:54:09;;;;;;;13.73;6.05;;;6.70;99.90;;;;;;4841628;29;20054;-77
2024/01/25 01:56:35;;;;;;;11.15;5.55;;;6.70;99.90;;;;;;4821898;29;20042;-78
2024/01/25 01:59:05;;;;;;;12.27;5.65;;;6.60;99.90;;;;;;4849386;29;20495;-78
2024/01/25 02:01:31;;;;;;;16.60;6.10;;;6.50;99.90;;;;;;4830101;29;20046;-78
2024/01/25 02:03:57;;;;;;;14.75;6.32;;;6.50;99.90;;;;;;4826363;29;20042;-77
2024/01/25 02:06:26;;;;;;;10.60;6.10;;;6.40;99.90;;;;;;4830147;29;20339;-77
2024/01/25 02:08:58;;;;;;;11.07;6.13;;;6.40;99.90;;;;;;4831489;29;20081;-76
2024/01/25 02:11:24;;;;;;;14.43;5.60;;;6.30;99.90;;;;;;4827423;29;20057;-76
2024/01/25 02:13:50;;;;;;;11.48;6.35;;;6.00;99.90;;;;;;4838399;29;20038;-76
2024/01/25 02:16:17;;;;;;;13.57;6.43;;;6.10;99.90;;;;;;4824094;29;20100;-76
2024/01/25 02:18:43;;;;;;;14.48;5.57;;;6.10;99.90;;;;;;4836811;29;20061;-77
2024/01/25 02:21:08;;;;;;;17.23;5.90;;;6.00;99.90;;;;;;4824999;29;20042;-76
2024/01/25 02:23:34;;;;;;;15.68;5.85;;;6.00;99.90;;;;;;4817112;29;20054;-77
2024/01/25 02:26:00;;;;;;;10.32;6.00;;;6.00;99.90;;;;;;4822557;29;20038;-77
2024/01/25 02:28:26;;;;;;;14.98;5.55;;;5.90;99.90;;;;;;4849789;29;20053;-76
2024/01/25 02:30:51;;;;;;;19.17;6.28;;;5.90;99.90;;;;;;4839794;29;20395;-77
2024/01/25 02:33:17;;;;;;;18.65;5.93;;;6.00;99.90;;;;;;4823301;29;20038;-75
2024/01/25 02:35:43;;;;;;;16.70;5.25;;;5.80;99.90;;;;;;4865202;29;20053;-75
2024/01/25 02:38:08;;;;;;;17.58;5.47;;;5.80;99.90;;;;;;4828331;29;20102;-75
2024/01/25 02:40:34;;;;;;;15.25;5.78;;;5.70;99.90;;;;;;4835358;29;20057;-75
2024/01/25 02:43:00;;;;;;;9.63;5.60;;;5.70;99.90;;;;;;4842785;29;20043;-76
2024/01/25 02:45:25;;;;;;;14.77;5.78;;;5.70;99.90;;;;;;4816097;29;20046;-77
2024/01/25 02:47:51;;;;;;;24.17;6.15;;;5.70;99.90;;;;;;4864955;29;20057;-77
2024/01/25 02:50:17;;;;;;;21.67;6.00;;;5.70;99.90;;;;;;4823172;29;20050;-75
2024/01/25 02:52:42;;;;;;;11.38;6.05;;;5.60;99.90;;;;;;4865035;29;20102;-77
2024/01/25 02:55:08;;;;;;;15.15;6.03;;;5.60;99.90;;;;;;4823147;29;20498;-75
2024/01/25 02:57:34;;;;;;;11.32;5.85;;;5.60;99.90;;;;;;4847193;29;20058;-76
2024/01/25 03:00:00;;;;;;;12.48;5.90;;;5.60;99.90;;;;;;4816850;29;20133;-76
2024/01/25 03:02:25;;;;;;;11.15;5.13;;;5.60;99.90;;;;;;4864665;29;20045;-78
2024/01/25 03:04:51;;;;;;;13.15;5.13;;;5.50;99.90;;;;;;4820251;29;20142;-75
2024/01/25 03:07:17;;;;;;;9.18;5.20;;;5.50;99.90;;;;;;4816070;29;20061;-75
2024/01/25 03:09:43;;;;;;;15.27;6.28;;;5.50;99.90;;;;;;4818197;29;20054;-75
2024/01/25 03:12:09;;;;;;;16.20;5.65;;;5.50;99.90;;;;;;4864335;29;20084;-76
2024/01/25 03:14:35;;;;;;;14.18;5.90;;;5.40;99.90;;;;;;4861088;29;20577;-77
2024/01/25 03:17:01;;;;;;;14.75;6.10;;;5.40;99.90;;;;;;4861804;29;20054;-76
2024/01/25 03:19:28;;;;;;;13.88;6.07;;;5.40;99.90;;;;;;4860986;29;20102;-76
2024/01/25 03:21:54;;;;;;;17.25;6.15;;;5.40;99.90;;;;;;4828105;29;20110;-76
2024/01/25 03:24:20;;;;;;;13.80;6.00;;;5.30;99.90;;;;;;4827175;29;20053;-75
2024/01/25 03:26:46;;;;;;;17.55;6.15;;;5.30;99.90;;;;;;4823865;29;20410;-75
2024/01/25 03:29:12;;;;;;;15.13;6.05;;;5.30;99.90;;;;;;4816096;29;20062;-75
2024/01/25 03:31:38;;;;;;;16.42;5.47;;;5.20;99.90;;;;;;4863704;29;20049;-76
2024/01/25 03:34:04;;;;;;;14.02;5.93;;;5.20;99.90;;;;;;4824558;29;20135;-77
2024/01/25 03:36:31;;;;;;;19.48;5.80;;;5.20;99.90;;;;;;4845112;29;20066;-76
2024/01/25 03:38:57;;;;;;;16.90;6.32;;;5.20;99.90;;;;;;4816080;29;20052;-76
2024/01/25 03:41:23;;;;;;;11.07;5.03;;;5.20;99.90;;;;;;4861028;29;20047;-76
2024/01/25 03:43:49;;;;;;;14.45;6.07;;;5.10;99.90;;;;;;4815453;29;20047;-76
2024/01/25 03:46:15;;;;;;;7.88;5.47;;;5.20;99.90;;;;;;4864178;29;20120;-77
2024/01/25 03:48:41;;;;;;;13.15;6.03;;;5.10;99.90;;;;;;4823104;29;20042;-76
2024/01/25 03:51:07;;;;;;;18.35;6.13;;;5.20;99.90;;;;;;4849212;29;20050;-78
2024/01/25 03:53:33;;;;;;;17.73;6.35;;;5.10;99.90;;;;;;4861221;29;20056;-76
2024/01/25 03:55:58;;;;;;;14.20;6.63;;;5.10;99.90;;;;;;4818780;29;20062;-76
2024/01/25 03:58:24;;;;;;;13.10;5.30;;;5.10;99.90;;;;;;4848395;29;20098;-77
2024/01/25 04:00:50;;;;;;;11.75;6.55;;;5.10;99.90;;;;;;4832766;29;20465;-76
2024/01/25 04:03:15;;;;;;;17.67;7.00;;;5.10;99.90;;;;;;4823949;29;20180;-78
2024/01/25 04:05:41;;;;;;;14.05;5.55;;;5.10;99.90;;;;;;4814974;29;20082;-78
2024/01/25 04:08:07;;;;;;;12.88;5.70;;;5.10;99.90;;;;;;4815941;29;20046;-76
2024/01/25 04:10:33;;;;;;;14.48;5.68;;;5.00;99.90;;;;;;4814285;29;20080;-76
2024/01/25 04:13:04;;;;;;;12.65;5.32;;;5.00;99.90;;;;;;4815283;29;20039;-75
2024/01/25 04:15:30;;;;;;;19.70;7.10;;;5.20;99.90;;;;;;4861086;29;20047;-76
2024/01/25 04:17:56;;;;;;;15.15;5.60;;;5.10;99.90;;;;;;4824113;29;20045;-76
2024/01/25 04:20:22;;;;;;;9.95;5.05;;;5.00;99.90;;;;;;4848692;29;20088;-76
2024/01/25 04:22:47;;;;;;;11.68;5.35;;;5.00;99.90;;;;;;4816768;29;20094;-77
2024/01/25 04:25:13;;;;;;;20.63;5.80;;;5.00;99.90;;;;;;4863390;29;20050;-78
2024/01/25 04:27:39;;;;;;;15.52;6.05;;;4.90;99.90;;;;;;4861351;29;20058;-76
2024/01/25 04:30:06;;;;;;;13.23;5.47;;;4.90;99.90;;;;;;4820430;29;20050;-79
2024/01/25 04:32:32;;;;;;;15.30;5.10;;;4.90;99.90;;;;;;4818287;29;20049;-76
2024/01/25 04:34:58;;;;;;;14.68;5.20;;;5.10;99.90;;;;;;4822460;29;20043;-78
2024/01/25 04:37:23;;;;;;;13.15;6.32;;;4.80;99.90;;;;;;4820418;29;20058;-81
2024/01/25 04:39:49;;;;;;;28.45;6.80;;;4.70;99.90;;;;;;4814242;29;20110;-79
2024/01/25 04:42:15;;;;;;;15.45;6.75;;;4.70;99.90;;;;;;4848765;29;20045;-75
2024/01/25 04:44:40;;;;;;;16.10;6.05;;;4.90;99.90;;;;;;4824315;29;20061;-77
2024/01/25 04:47:06;;;;;;;13.57;5.22;;;4.60;99.90;;;;;;4823495;29;20050;-77
2024/01/25 04:49:32;;;;;;;18.20;6.03;;;4.70;99.90;;;;;;4842989;29;20094;-75
2024/01/25 04:51:57;;;;;;;24.38;6.47;;;4.60;99.90;;;;;;4830960;29;20074;-75
2024/01/25 04:54:23;;;;;;;19.83;5.20;;;4.80;99.90;;;;;;4845114;29;20046;-77
2024/01/25 04:56:49;;;;;;;17.35;6.57;;;4.70;99.90;;;;;;4844630;29;20046;-78
2024/01/25 04:59:14;;;;;;;18.38;5.57;;;4.50;99.90;;;;;;4845268;29;20068;-78
2024/01/25 05:01:40;;;;;;;13.60;5.90;;;4.50;99.90;;;;;;4860870;29;20046;-76
2024/01/25 05:04:06;;;;;;;12.88;5.07;;;4.50;99.90;;;;;;4863965;29;20046;-76
2024/01/25 05:06:31;;;;;;;14.55;5.32;;;4.40;99.90;;;;;;4829102;29;20045;-79
2024/01/25 05:08:57;;;;;;;13.18;4.97;;;4.50;99.90;;;;;;4847634;29;20083;-77
2024/01/25 05:11:22;;;;;;;12.60;5.47;;;4.40;99.90;;;;;;4817709;29;20050;-76
2024/01/25 05:13:48;;;;;;;13.55;5.15;;;4.40;99.90;;;;;;4847849;29;20474;-77
2024/01/25 05:16:14;;;;;;;21.20;6.00;;;4.30;99.90;;;;;;4824890;29;20423;-75
2024/01/25 05:18:39;;;;;;;15.95;6.97;;;4.30;99.90;;;;;;4862487;29;20094;-80
2024/01/25 05:21:06;;;;;;;18.40;5.93;;;4.30;99.90;;;;;;4825550;29;20039;-76
2024/01/25 05:23:31;;;;;;;10.93;5.55;;;4.30;99.90;;;;;;4817025;29;20062;-76
2024/01/25 05:25:57;;;;;;;16.35;5.93;;;4.30;99.90;;;;;;4844829;29;20038;-75
2024/01/25 05:28:24;;;;;;;25.17;7.05;;;4.40;99.90;;;;;;4845622;29;20054;-76
2024/01/25 05:30:50;;;;;;;15.73;6.57;;;4.30;99.90;;;;;;4847484;29;20046;-77
2024/01/25 05:33:16;;;;;;;24.23;6.82;;;4.30;99.90;;;;;;4821225;29;20111;-76
2024/01/25 05:35:42;;;;;;;10.75;6.03;;;4.30;99.90;;;;;;4815887;29;20583;-79
2024/01/25 05:38:07;;;;;;;17.83;5.80;;;4.20;99.90;;;;;;4818427;29;20503;-77
2024/01/25 05:40:33;;;;;;;17.30;6.63;;;4.20;99.90;;;;;;4847211;29;20234;-76
2024/01/25 05:42:59;;;;;;;11.70;5.43;;;4.20;99.90;;;;;;4836054;29;20050;-78
2024/01/25 05:45:26;;;;;;;16.27;6.40;;;4.20;99.90;;;;;;4819119;29;20042;-78
2024/01/25 05:47:51;;;;;;;15.50;6.18;;;4.20;99.90;;;;;;4823942;29;20076;-78
2024/01/25 05:50:17;;;;;;;15.45;5.88;;;4.30;99.90;;;;;;4850827;29;20046;-77
2024/01/25 05:52:43;;;;;;;16.98;6.13;;;4.30;99.90;;;;;;4865700;29;20054;-78
2024/01/25 05:55:09;;;;;;;14.73;5.55;;;4.20;99.90;;;;;;4829088;29;20432;-77
2024/01/25 05:57:36;;;;;;;9.73;5.22;;;4.20;99.90;;;;;;4849985;29;20350;-79
2024/01/25 06:00:05;;;;;;;13.20;5.47;;;4.20;99.90;;;;;;4825321;29;20047;-79
2024/01/25 06:02:31;;;;;;;18.13;6.60;;;4.20;99.90;;;;;;4816989;29;20077;-78
2024/01/25 06:04:58;;;;;;;18.52;5.80;;;4.40;99.90;;;;;;4832312;29;20054;-78
2024/01/25 06:07:24;;;;;;;18.80;6.07;;;4.30;99.90;;;;;;4850954;29;20133;-79
2024/01/25 06:09:50;;;;;;;21.85;6.60;;;4.10;99.90;;;;;;4825596;29;20091;-78
2024/01/25 06:12:16;;;;;;;20.02;6.35;;;4.40;99.90;;;;;;4820472;29;20038;-79
2024/01/25 06:14:42;;;;;;;25.10;6.85;;;4.10;99.90;;;;;;4865027;29;20110;-80
2024/01/25 06:17:08;;;;;;;14.48;6.05;;;4.10;99.90;;;;;;4836609;29;20046;-78
2024/01/25 06:19:34;;;;;;;18.05;7.32;;;4.10;99.90;;;;;;4865260;29;20645;-77
2024/01/25 06:22:00;;;;;;;18.83;7.60;;;4.00;99.90;;;;;;4839219;29;20106;-78
2024/01/25 06:24:26;;;;;;;22.25;7.60;;;4.10;99.90;;;;;;4820093;29;20073;-77
2024/01/25 06:26:53;;;;;;;13.63;6.07;;;4.20;99.90;;;;;;4850200;29;20117;-77
2024/01/25 06:29:19;;;;;;;16.42;7.00;;;4.10;99.90;;;;;;4843129;29;20498;-78
2024/01/25 06:31:45;;;;;;;19.25;6.45;;;4.00;99.90;;;;;;4821684;29;20054;-80
2024/01/25 06:34:11;;;;;;;10.77;6.25;;;4.10;99.90;;;;;;4817179;29;20238;-79
2024/01/25 06:36:37;;;;;;;12.93;6.40;;;4.00;99.90;;;;;;4821665;29;20054;-79
2024/01/25 06:39:04;;;;;;;17.70;6.47;;;4.00;99.90;;;;;;4850023;29;20042;-78
2024/01/25 06:41:30;;;;;;;14.55;5.80;;;4.00;99.90;;;;;;4820622;29;20046;-79
2024/01/25 06:43:56;;;;;;;12.18;5.68;;;3.90;99.90;;;;;;4821549;29;20282;-81
2024/01/25 06:46:21;;;;;;;23.27;6.35;;;3.90;99.90;;;;;;4865372;29;20081;-78
2024/01/25 06:48:48;;;;;;;11.68;6.10;;;3.90;99.90;;;;;;4838030;29;20078;-78
2024/01/25 06:51:14;;;;;;;16.42;6.55;;;3.90;99.90;;;;;;4865723;29;20082;-78
2024/01/25 06:53:40;;;;;;;12.50;5.32;;;3.90;99.90;;;;;;4817917;29;20103;-79
2024/01/25 06:56:06;;;;;;;17.77;6.32;;;3.90;99.90;;;;;;4849572;29;20073;-79
2024/01/25 06:58:32;;;;;;;21.00;6.28;;;3.80;99.90;;;;;;4824282;29;20061;-80
2024/01/25 07:00:58;;;;;;;20.20;6.32;;;3.80;99.90;;;;;;4848995;29;20042;-81
2024/01/25 07:03:24;;;;;;;21.40;7.53;;;3.80;99.90;;;;;;4832988;29;20203;-78
2024/01/25 07:05:49;;;;;;;15.88;6.60;;;3.80;99.90;;;;;;4861389;29;20518;-79
2024/01/25 07:08:15;;;;;;;17.58;5.88;;;3.80;99.90;;;;;;4848292;29;20053;-81
2024/01/25 07:10:42;;;;;;;24.20;7.35;;;3.80;99.90;;;;;;4823123;29;20553;-80
2024/01/25 07:13:08;;;;;;;14.35;7.68;;;3.70;99.90;;;;;;4821170;29;20392;-79
2024/01/25 07:15:33;;;;;;;17.75;6.78;;;3.70;99.90;;;;;;4861681;29;20228;-83
2024/01/25 07:17:59;;;;;;;14.23;6.57;;;3.70;99.90;;;;;;4815937;29;20057;-80
2024/01/25 07:20:25;;;;;;;12.23;5.80;;;3.60;99.90;;;;;;4847007;29;20838;-81
2024/01/25 07:22:51;;;;;;;15.05;6.82;;;3.60;99.90;;;;;;4845475;29;20136;-79
2024/01/25 07:25:16;;;;;;;15.48;7.10;;;4.40;99.90;;;;;;4846967;29;20050;-78
2024/01/25 07:27:46;;;;;;;19.15;6.90;;;4.50;99.90;;;;;;4815776;29;20046;-79
2024/01/25 07:30:13;;;;;;;18.15;6.82;;;3.60;99.90;;;;;;4837413;29;20055;-81
2024/01/25 07:32:41;;;;;;;15.73;7.22;;;3.60;99.90;;;;;;4815035;29;20512;-80
2024/01/25 07:35:09;;;;;;;19.38;6.72;;;3.60;99.90;;;;;;4864023;29;20405;-78
2024/01/25 07:37:35;;;;;;;16.10;6.80;;;3.70;99.90;;;;;;4840645;29;20069;-78
2024/01/25 07:40:03;;;;;;;18.50;6.78;;;3.70;99.90;;;;;;4848270;29;20463;-81
2024/01/25 07:42:29;;;;;;;16.80;7.47;;;3.80;99.90;;;;;;4822140;29;20042;-80
2024/01/25 07:44:54;;;;;;;18.02;6.32;;;3.70;99.90;;;;;;4815242;29;20141;-79
2024/01/25 07:47:20;;;;;;;22.25;7.70;;;3.70;99.90;;;;;;4818409;29;20061;-80
2024/01/25 07:49:46;;;;;;;15.23;6.25;;;3.70;99.90;;;;;;4823013;29;20046;-79
2024/01/25 07:52:11;;;;;;;25.60;7.60;;;3.70;99.90;;;;;;4825521;29;20058;-79
2024/01/25 07:54:37;;;;;;;17.27;7.47;;;3.70;99.90;;;;;;4846663;29;20046;-80
2024/01/25 07:57:03;;;;;;;13.63;6.88;;;3.90;99.90;;;;;;4860239;29;20057;-80
2024/01/25 07:59:29;;;;;;;15.88;6.28;;;3.70;99.90;;;;;;4849206;29;20050;-78
2024/01/25 08:01:54;;;;;;;11.52;6.32;;;3.80;99.90;;;;;;4837133;29;20074;-79
2024/01/25 08:04:20;;;;;;;19.05;7.90;;;3.80;99.90;;;;;;4843495;29;20084;-79
2024/01/25 08:06:46;;;;;;;23.05;6.65;;;2.70;99.90;;;;;;4827479;29;20046;-81
2024/01/25 08:09:12;;;;;;;15.43;8.13;;;3.80;99.90;;;;;;4844882;29;20057;-81
2024/01/25 08:11:37;;;;;;;17.25;7.57;;;4.10;99.90;;;;;;4843613;29;20410;-80
2024/01/25 08:14:03;;;;;;;11.70;6.85;;;4.00;99.90;;;;;;4827994;29;20053;-85
2024/01/25 08:16:29;;;;;;;17.40;6.50;;;4.00;99.90;;;;;;4830473;29;20121;-86
2024/01/25 08:18:55;;;;;;;12.50;6.78;;;4.00;99.90;;;;;;4823733;29;20073;-80
2024/01/25 08:21:21;;;;;;;17.42;7.43;;;4.00;99.90;;;;;;4847094;29;20057;-79
2024/01/25 08:23:47;;;;;;;21.55;7.10;;;4.00;99.90;;;;;;4872051;29;20044;-82
2024/01/25 08:26:13;;;;;;;23.52;6.78;;;4.10;99.90;;;;;;4822055;29;20038;-84
2024/01/25 08:28:40;;;;;;;14.63;7.07;;;4.10;99.90;;;;;;4820567;29;20136;-85
2024/01/25 08:31:05;;;;;;;16.70;7.35;;;4.10;99.90;;;;;;4860449;29;20045;-85
2024/01/25 08:33:31;;;;;;;13.82;6.15;;;4.20;99.90;;;;;;4833356;29;20141;-83
2024/01/25 08:35:57;;;;;;;15.82;7.18;;;4.30;99.90;;;;;;4831897;29;20110;-85
2024/01/25 08:38:23;;;;;;;19.25;6.32;;;4.20;99.90;;;;;;4833118;29;20136;-83
2024/01/25 08:40:48;;;;;;;19.88;7.10;;;4.20;99.90;;;;;;4832723;29;20113;-83
2024/01/25 08:43:14;;;;;;;9.65;6.70;;;4.20;99.90;;;;;;4831540;29;20065;-82
2024/01/25 08:45:40;;;;;;;32.40;7.93;;;4.30;99.90;;;;;;4832341;29;20118;-83
2024/01/25 08:48:06;;;;;;;16.65;7.15;;;4.30;99.90;;;;;;4832338;29;20078;-79
2024/01/25 08:50:33;;;;;;;9.68;6.03;;;4.30;99.90;;;;;;4832600;29;20053;-84
2024/01/25 08:52:59;;;;;;;17.70;6.28;;;4.30;99.90;;;;;;4847295;29;20440;-83
2024/01/25 08:55:25;;;;;;;14.35;6.38;;;4.30;99.90;;;;;;4847114;29;20088;-79
2024/01/25 08:57:51;;;;;;;13.07;7.50;;;4.30;99.90;;;;;;4831255;29;20062;-80
2024/01/25 09:00:18;;;;;;;21.27;7.47;;;4.50;99.90;;;;;;4834655;29;20052;-79
2024/01/25 09:02:44;;;;;;;21.83;7.45;;;4.30;99.90;;;;;;4846882;29;20053;-79
2024/01/25 09:05:10;;;;;;;14.25;7.13;;;4.30;99.90;;;;;;4831896;29;20052;-82
2024/01/25 09:07:37;;;;;;;19.17;7.32;;;4.40;99.90;;;;;;4832078;29;20078;-81
2024/01/25 09:10:04;;;;;;;21.70;7.22;;;4.40;99.90;;;;;;4846947;29;20038;-80
2024/01/25 09:12:30;;;;;;;16.10;6.70;;;4.40;99.90;;;;;;4832615;29;20046;-78
2024/01/25 09:14:56;;;;;;;12.32;6.88;;;4.40;99.90;;;;;;4832009;29;20064;-80
2024/01/25 09:17:22;;;;;;;15.18;6.95;;;4.50;99.90;;;;;;4834787;29;20049;-79
2024/01/25 09:19:51;;;;;;;14.38;6.55;;;4.50;99.90;;;;;;4834730;29;20054;-79
2024/01/25 09:22:19;;;;;;;14.98;6.57;;;4.50;99.90;;;;;;4835370;29;20042;-79
2024/01/25 09:24:46;;;;;;;18.90;6.38;;;4.50;99.90;;;;;;4835400;29;20073;-81
2024/01/25 09:27:12;;;;;;;17.10;8.15;;;4.50;99.90;;;;;;4850409;29;20061;-83
2024/01/25 09:29:39;;;;;;;14.20;6.85;;;4.60;99.90;;;;;;4836005;29;20062;-79
2024/01/25 09:32:07;;;;;;;17.02;7.38;;;4.60;99.90;;;;;;4833641;29;20511;-79
2024/01/25 09:34:32;;;;;;;14.23;6.63;;;4.70;99.90;;;;;;4849934;29;20416;-80
2024/01/25 09:36:58;;;;;;;13.18;6.38;;;4.70;99.90;;;;;;4834735;29;20037;-82
2024/01/25 09:39:24;;;;;;;14.15;7.10;;;4.80;99.90;;;;;;4833668;29;20128;-78
2024/01/25 09:41:49;;;;;;;18.17;7.47;;;4.80;99.90;;;;;;4849279;29;20046;-79
2024/01/25 09:44:17;;;;;;;15.30;8.13;;;4.90;99.90;;;;;;4832237;29;20113;-84
2024/01/25 09:46:45;;;;;;;15.48;7.18;;;4.90;99.90;;;;;;4849354;29;20050;-79
2024/01/25 09:49:11;;;;;;;15.95;7.07;;;4.90;99.90;;;;;;4848220;29;20057;-82
2024/01/25 09:51:41;;;;;;;14.40;7.97;;;5.00;99.90;;;;;;4835449;29;20061;-79
2024/01/25 09:54:08;;;;;;;18.25;7.22;;;5.00;99.90;;;;;;4850679;29;20580;-80
2024/01/25 09:56:35;;;;;;;25.98;8.90;;;5.00;99.90;;;;;;4833627;29;20045;-80
2024/01/25 09:59:01;;;;;;;17.35;7.50;;;5.10;99.90;;;;;;4853228;29;20045;-81
2024/01/25 10:01:27;;;;;;;16.92;7.70;;;5.10;99.90;;;;;;4833963;29;20033;-85
2024/01/25 10:03:56;;;;;;;19.50;8.45;;;5.20;99.90;;;;;;4850834;29;20050;-82
2024/01/25 10:06:22;;;;;;;17.50;7.72;;;5.20;99.90;;;;;;4826373;29;20065;-86
2024/01/25 10:08:48;;;;;;;15.82;7.43;;;5.30;99.90;;;;;;4831795;29;20034;-78
2024/01/25 10:11:14;;;;;;;19.70;7.55;;;5.40;99.90;;;;;;4831088;29;20071;-79
2024/01/25 10:13:50;;;;;;;13.88;7.10;;;5.40;99.90;;;;;;4848364;29;20067;-84
2024/01/25 10:16:20;;;;;;;18.40;6.43;;;5.50;99.90;;;;;;4833417;29;20038;-86
2024/01/25 10:18:47;;;;;;;15.30;6.97;;;5.50;99.90;;;;;;3984637;29;10000706;-82
2024/01/25 10:21:13;;;;;;;13.65;7.00;;;5.70;99.90;;;;;;4847881;29;20134;-82
2024/01/25 10:23:48;;;;;;;18.91;7.49;;;5.80;99.90;;;;;;4760712;29;10000570;-79
2024/01/25 10:26:15;;;;;;;13.25;6.45;;;5.80;99.90;;;;;;4317686;29;10001126;-79
2024/01/25 10:28:41;;;;;;;21.95;7.45;;;5.80;99.90;;;;;;4838758;29;20070;-79
2024/01/25 10:31:07;;;;;;;15.73;8.27;;;5.80;99.90;;;;;;4833588;29;20067;-79
2024/01/25 10:33:34;;;;;;;17.42;7.40;;;5.70;99.90;;;;;;4834346;29;20423;-80
2024/01/25 10:36:03;;;;;;;11.30;6.35;;;5.80;99.90;;;;;;4849262;29;20038;-83
2024/01/25 10:38:37;;;;;;;18.35;7.85;;;5.80;99.90;;;;;;4834379;29;20519;-79
2024/01/25 10:41:05;;;;;;;15.05;7.97;;;5.90;99.90;;;;;;4833876;29;20209;-81
2024/01/25 10:43:32;;;;;;;24.35;6.95;;;6.00;99.90;;;;;;4834107;29;20045;-79
2024/01/25 10:45:58;;;;;;;15.38;7.47;;;6.10;99.90;;;;;;4833153;29;20135;-80
2024/01/25 10:48:31;;;;;;;19.60;7.43;;;6.30;99.90;;;;;;4832967;29;20074;-79
2024/01/25 10:50:59;;;;;;;18.10;6.75;;;6.70;99.90;;;;;;4850695;29;20205;-83
2024/01/25 10:53:26;;;;;;;18.02;6.10;;;7.20;99.90;;;;;;4833037;29;20088;-81
2024/01/25 10:55:52;;;;;;;16.38;6.30;;;7.50;99.90;;;;;;3984459;29;10000400;-79
2024/01/25 10:58:18;;;;;;;17.60;6.45;;;7.90;99.90;;;;;;4848014;29;20054;-79
2024/01/25 11:01:02;;;;;;;19.00;6.22;;;8.30;99.90;;;;;;4835562;29;20066;-79
2024/01/25 11:03:29;;;;;;;13.38;6.30;;;8.50;99.90;;;;;;4849464;29;20056;-79
2024/01/25 11:05:56;;;;;;;19.55;5.55;;;8.50;99.90;;;;;;4833551;29;20053;-80
2024/01/25 11:08:23;;;;;;;18.17;5.47;;;8.90;99.90;;;;;;4832427;29;20050;-83
2024/01/25 11:10:54;;;;;;;14.05;5.05;;;9.00;99.90;;;;;;4832747;29;20045;-79
2024/01/25 11:13:27;;;;;;;16.50;5.68;;;9.10;99.90;;;;;;4833340;29;20510;-79
2024/01/25 11:15:53;;;;;;;15.80;5.53;;;9.10;99.90;;;;;;4833144;29;20350;-85
2024/01/25 11:18:18;;;;;;;11.77;4.95;;;9.30;99.90;;;;;;4832710;29;20099;-80
2024/01/25 11:20:48;;;;;;;12.52;5.60;;;9.50;99.90;;;;;;4831292;29;20419;-81
2024/01/25 11:23:16;;;;;;;12.25;5.30;;;9.60;99.90;;;;;;4845453;29;20053;-79
2024/01/25 11:25:48;;;;;;;17.25;6.72;;;9.60;99.90;;;;;;4834092;29;20084;-80
2024/01/25 11:28:17;;;;;;;13.23;6.00;;;9.20;99.90;;;;;;4830731;29;20109;-78
2024/01/25 11:30:43;;;;;;;10.73;5.75;;;8.60;99.90;;;;;;4833189;29;20046;-77
2024/01/25 11:33:10;;;;;;;19.10;6.97;;;8.20;99.90;;;;;;4833920;29;20045;-77
2024/01/25 11:35:36;;;;;;;14.07;6.28;;;8.00;99.90;;;;;;4832727;29;20110;-79
2024/01/25 11:38:02;;;;;;;17.48;6.65;;;7.90;99.90;;;;;;4849146;29;20046;-77
2024/01/25 11:40:29;;;;;;;16.15;6.82;;;7.90;99.90;;;;;;4847620;29;20054;-78
2024/01/25 11:42:55;;;;;;;13.25;6.18;;;8.00;99.90;;;;;;4830715;29;20041;-76
2024/01/25 11:45:20;;;;;;;18.90;6.30;;;7.90;99.90;;;;;;4849155;29;20042;-85
2024/01/25 11:47:46;;;;;;;13.50;7.43;;;8.00;99.90;;;;;;4833966;29;20038;-82
2024/01/25 11:50:13;;;;;;;16.98;6.32;;;7.90;99.90;;;;;;4834352;29;20110;-76
2024/01/25 11:52:39;;;;;;;13.90;6.43;;;7.80;99.90;;;;;;4848610;29;20054;-78
2024/01/25 11:55:06;;;;;;;13.98;5.68;;;7.70;99.90;;;;;;4834589;29;20075;-77
2024/01/25 11:57:43;;;;;;;8.10;6.45;;;7.70;99.90;;;;;;4848079;29;20064;-77
2024/01/25 12:00:13;;;;;;;12.65;6.75;;;7.70;99.90;;;;;;4834071;29;20049;-79
2024/01/25 12:02:39;;;;;;;9.73;6.50;;;7.70;99.90;;;;;;4833654;29;20195;-82
2024/01/25 12:05:05;;;;;;;18.77;7.43;;;7.60;99.90;;;;;;4833446;29;20042;-76
2024/01/25 12:07:32;;;;;;;14.75;6.35;;;7.60;99.90;;;;;;4833940;29;20050;-84
2024/01/25 12:10:04;;;;;;;13.77;6.60;;;7.50;99.90;;;;;;4833004;29;20081;-83
2024/01/25 12:12:30;;;;;;;13.98;6.40;;;7.50;99.90;;;;;;4849293;29;20107;-82
2024/01/25 12:15:04;;;;;;;15.68;5.85;;;7.50;99.90;;;;;;4833298;29;20041;-77
2024/01/25 12:17:31;;;;;;;13.90;6.78;;;7.50;99.90;;;;;;4833926;29;20475;-80
2024/01/25 12:20:00;;;;;;;13.52;6.72;;;7.40;99.90;;;;;;4833485;29;20054;-83
2024/01/25 12:22:29;;;;;;;15.68;6.97;;;7.50;99.90;;;;;;4848320;29;20125;-84
2024/01/25 12:24:58;;;;;;;23.50;8.23;;;7.60;99.90;;;;;;4834489;29;20082;-84
2024/01/25 12:27:26;;;;;;;13.25;6.15;;;7.60;99.90;;;;;;4833038;29;20113;-81
2024/01/25 12:29:56;;;;;;;18.58;7.00;;;7.60;99.90;;;;;;4849062;29;20054;-82
2024/01/25 12:32:22;;;;;;;17.05;6.07;;;7.60;99.90;;;;;;4833337;29;20478;-82
2024/01/25 12:34:55;;;;;;;14.20;6.72;;;7.60;99.90;;;;;;4833286;29;20113;-83
2024/01/25 12:37:22;;;;;;;16.25;6.20;;;7.70;99.90;;;;;;4848816;29;20049;-81
2024/01/25 12:39:48;;;;;;;13.90;5.85;;;7.70;99.90;;;;;;4832721;29;20327;-85
2024/01/25 12:42:14;;;;;;;16.45;6.05;;;7.80;99.90;;;;;;4849374;29;20050;-79
2024/01/25 12:44:39;;;;;;;14.52;6.00;;;7.80;99.90;;;;;;4832625;29;20050;-86